createdAt,value
2018-06-02T00:00:03.283Z,20.4
2018-06-02T00:05:02.670Z,20.3
2018-06-02T00:10:17.754Z,20.2
2018-06-02T00:15:10.521Z,20.3
2018-06-02T00:20:05.525Z,20.3
2018-06-02T00:25:02.366Z,20.3
2018-06-02T00:30:05.305Z,20.2
2018-06-02T00:35:05.716Z,20.1
2018-06-02T00:40:02.569Z,20.2
2018-06-02T00:45:08.063Z,20.1
2018-06-02T00:50:05.044Z,20.1
2018-06-02T00:55:13.011Z,20.1
2018-06-02T01:00:02.434Z,20.1
2018-06-02T01:05:02.876Z,20.1
2018-06-02T01:10:20.504Z,20.1
2018-06-02T01:15:08.301Z,20.1
2018-06-02T01:20:05.285Z,20
2018-06-02T01:25:10.762Z,20
2018-06-02T01:30:03.147Z,20
2018-06-02T01:35:05.159Z,20
2018-06-02T01:40:03.068Z,20
2018-06-02T01:45:02.549Z,20
2018-06-02T01:50:13.073Z,20
2018-06-02T01:55:12.553Z,20
2018-06-02T02:00:18.123Z,19.9
2018-06-02T02:05:02.415Z,19.9
2018-06-02T02:10:05.842Z,19.7
2018-06-02T02:15:05.263Z,19.6
2018-06-02T02:20:02.773Z,19.7
2018-06-02T02:25:05.623Z,19.6
2018-06-02T02:30:05.521Z,19.5
2018-06-02T02:35:02.449Z,19.6
2018-06-02T02:40:08.490Z,19.5
2018-06-02T02:45:07.774Z,19.7
2018-06-02T02:50:05.676Z,19.7
2018-06-02T02:55:05.088Z,19.7
2018-06-02T03:00:07.537Z,19.7
2018-06-02T03:05:07.983Z,19.8
2018-06-02T03:10:05.367Z,19.8
2018-06-02T03:15:03.240Z,19.8
2018-06-02T03:20:15.433Z,19.8
2018-06-02T03:25:03.091Z,19.7
2018-06-02T03:30:12.612Z,19.5
2018-06-02T03:35:05.447Z,19.5
2018-06-02T03:40:03.297Z,19.4
2018-06-02T03:45:02.689Z,19.5
2018-06-02T03:50:03.104Z,19.5
2018-06-02T03:55:05.124Z,19.5
2018-06-02T04:00:02.616Z,19.5
2018-06-02T04:05:05.448Z,19.6
2018-06-02T04:10:08.411Z,19.7
2018-06-02T04:15:10.303Z,19.7
2018-06-02T04:20:02.808Z,19.7
2018-06-02T04:25:05.807Z,6.9
2018-06-02T04:30:05.684Z,19.8
2018-06-02T04:35:02.638Z,19.7
2018-06-02T04:40:02.532Z,19.7
2018-06-02T04:45:03.036Z,19.8
2018-06-02T04:50:02.440Z,19.9
2018-06-02T04:55:07.967Z,19.9
2018-06-02T05:00:02.349Z,19.9
2018-06-02T05:05:02.797Z,20
2018-06-02T05:10:13.001Z,20
2018-06-02T05:15:08.277Z,20
2018-06-02T05:20:18.086Z,20
2018-06-02T05:25:02.404Z,20
2018-06-02T05:30:05.390Z,20.1
2018-06-02T05:35:05.808Z,20
2018-06-02T05:40:05.206Z,20
2018-06-02T05:45:03.057Z,20
2018-06-02T05:50:04.987Z,20
2018-06-02T05:55:10.480Z,20
2018-06-02T06:00:10.546Z,20.1
2018-06-02T06:05:03.249Z,20.1
2018-06-02T06:10:03.107Z,20.2
2018-06-02T06:15:05.066Z,20.2
2018-06-02T06:20:02.740Z,20.2
2018-06-02T06:25:15.744Z,20.3
2018-06-02T06:30:08.183Z,20.2
2018-06-02T06:35:07.597Z,20.3
2018-06-02T06:40:07.526Z,20.3
2018-06-02T06:45:05.386Z,20.4
2018-06-02T06:50:05.317Z,20.4
2018-06-02T06:55:03.249Z,20.4
2018-06-02T07:00:07.754Z,20.6
2018-06-02T07:05:03.118Z,20.6
2018-06-02T07:10:10.648Z,20.7
2018-06-02T07:15:15.142Z,20.7
2018-06-02T07:20:05.166Z,20.8
2018-06-02T07:25:10.863Z,20.9
2018-06-02T07:30:05.805Z,20.9
2018-06-02T07:35:05.229Z,21
2018-06-02T07:40:05.714Z,21
2018-06-02T07:45:05.288Z,21.2
2018-06-02T07:50:02.747Z,21.1
2018-06-02T07:55:05.695Z,21.4
2018-06-02T08:00:03.144Z,21.4
2018-06-02T08:05:02.506Z,21.7
2018-06-02T08:10:04.946Z,22.2
2018-06-02T08:15:10.488Z,22.4
2018-06-02T08:20:03.089Z,22.4
2018-06-02T08:25:05.074Z,22.6
2018-06-02T08:30:02.515Z,22.5
2018-06-02T08:35:05.416Z,22.9
2018-06-02T08:40:18.482Z,23
2018-06-02T08:45:05.318Z,22.9
2018-06-02T08:50:02.718Z,22.9
2018-06-02T08:55:03.211Z,23
2018-06-02T09:00:05.266Z,23.4
2018-06-02T09:05:08.179Z,23.4
2018-06-02T09:10:25.858Z,23.5
2018-06-02T09:15:05.779Z,23.5
2018-06-02T09:20:03.252Z,23.5
2018-06-02T09:25:02.687Z,23.3
2018-06-02T09:30:03.231Z,23.1
2018-06-02T09:35:02.718Z,23.1
2018-06-02T09:40:02.769Z,23.2
2018-06-02T09:45:05.809Z,23.7
2018-06-02T09:50:15.910Z,23.6
2018-06-02T09:55:05.187Z,23.5
2018-06-02T10:00:17.790Z,23.5
2018-06-02T10:05:02.999Z,23.5
2018-06-02T10:10:07.963Z,23.9
2018-06-02T10:15:02.408Z,23.9
2018-06-02T10:20:02.968Z,23.9
2018-06-02T10:25:10.034Z,24.1
2018-06-02T10:30:10.055Z,24.1
2018-06-02T10:35:05.457Z,24.3
2018-06-02T10:40:03.365Z,24.3
2018-06-02T10:45:05.401Z,24.3
2018-06-02T10:55:05.734Z,24.4
2018-06-02T11:00:03.108Z,24.3
2018-06-02T11:05:05.202Z,24.1
2018-06-02T11:10:03.087Z,24.1
2018-06-02T11:15:07.618Z,24.1
2018-06-02T11:20:03.408Z,24.1
2018-06-02T11:25:05.109Z,24.6
2018-06-02T11:30:02.537Z,24.5
2018-06-02T11:35:05.705Z,24.8
2018-06-02T11:40:02.608Z,24.8
2018-06-02T11:45:05.652Z,25
2018-06-02T11:50:13.192Z,24.9
2018-06-02T11:55:02.497Z,24.9
2018-06-02T12:00:02.917Z,24.8
2018-06-02T12:05:17.746Z,24.5
2018-06-02T12:10:05.137Z,24.6
2018-06-02T12:15:05.628Z,24.7
2018-06-02T12:20:13.220Z,24.8
2018-06-02T12:25:05.167Z,24.8
2018-06-02T12:30:20.545Z,24.5
2018-06-02T12:35:08.225Z,24.4
2018-06-02T12:40:03.084Z,24.4
2018-06-02T12:45:07.624Z,24.3
2018-06-02T12:50:05.569Z,24.2
2018-06-02T12:55:02.588Z,24.2
2018-06-02T13:00:03.020Z,24.2
2018-06-02T13:05:04.954Z,24
2018-06-02T13:10:02.849Z,24
2018-06-02T13:15:04.900Z,23.8
2018-06-02T13:20:02.461Z,23.8
2018-06-02T13:25:07.997Z,23.8
2018-06-02T13:30:02.347Z,23.8
2018-06-02T13:35:02.854Z,23.9
2018-06-02T13:40:05.233Z,23.5
2018-06-02T13:45:03.188Z,23.5
2018-06-02T13:50:02.647Z,23.5
2018-06-02T13:55:03.096Z,23.6
2018-06-02T14:00:10.082Z,23.7
2018-06-02T14:05:05.455Z,23.8
2018-06-02T14:10:10.996Z,23.7
2018-06-02T14:15:07.905Z,23.6
2018-06-02T14:20:10.095Z,24
2018-06-02T14:25:07.895Z,24
2018-06-02T14:30:08.323Z,23.9
2018-06-02T14:35:02.961Z,23.9
2018-06-02T14:40:10.525Z,24
2018-06-02T14:45:07.454Z,23.9
2018-06-02T14:50:05.441Z,23.7
2018-06-02T14:55:02.421Z,23.7
2018-06-02T15:00:08.018Z,24.1
2018-06-02T15:05:05.892Z,24.5
2018-06-02T15:10:05.299Z,24.8
2018-06-02T15:15:05.827Z,24.8
2018-06-02T15:20:08.355Z,24.8
2018-06-02T15:25:02.843Z,24.8
2018-06-02T15:30:20.127Z,23.7
2018-06-02T15:35:02.882Z,23.7
2018-06-02T15:40:02.807Z,23.8
2018-06-02T15:45:02.397Z,23.7
2018-06-02T15:50:08.044Z,23.5
2018-06-02T15:55:04.947Z,23.4
2018-06-02T16:00:05.901Z,23.3
2018-06-02T16:05:07.872Z,23.3
2018-06-02T16:10:02.746Z,23.3
2018-06-02T16:15:08.417Z,22.9
2018-06-02T16:20:03.003Z,22.9
2018-06-02T16:25:02.391Z,22.8
2018-06-02T16:30:05.276Z,22.6
2018-06-02T16:35:08.404Z,22.6
2018-06-02T16:40:03.333Z,22.5
2018-06-02T16:45:05.256Z,22.3
2018-06-02T16:50:22.955Z,22.2
2018-06-02T16:55:03.332Z,22.2
2018-06-02T17:00:02.698Z,22.2
2018-06-02T17:05:05.718Z,22.1
2018-06-02T17:10:07.917Z,22.1
2018-06-02T17:15:08.271Z,22.2
2018-06-02T17:20:10.431Z,22.1
2018-06-02T17:25:03.220Z,22.2
2018-06-02T17:30:07.746Z,22
2018-06-02T17:35:03.163Z,22
2018-06-02T17:40:05.576Z,22
2018-06-02T17:45:02.521Z,22
2018-06-02T17:50:10.494Z,22.1
2018-06-02T17:55:02.447Z,22.1
2018-06-02T18:00:05.492Z,22
2018-06-02T18:05:08.392Z,21.9
2018-06-02T18:10:03.268Z,21.9
2018-06-02T18:15:07.743Z,21.9
2018-06-02T18:20:05.724Z,21.7
2018-06-02T18:25:05.237Z,21.7
2018-06-02T18:30:02.616Z,21.7
2018-06-02T18:35:03.146Z,21.7
2018-06-02T18:40:03.046Z,21.7
2018-06-02T18:45:02.497Z,21.7
2018-06-02T18:50:07.958Z,21.6
2018-06-02T18:55:02.386Z,21.6
2018-06-02T19:00:30.620Z,21.6
2018-06-02T19:05:23.238Z,21.6
2018-06-02T19:10:05.772Z,21.5
2018-06-02T19:15:05.555Z,21.4
2018-06-02T19:20:03.419Z,21.5
2018-06-02T19:25:05.332Z,21.4
2018-06-02T19:30:02.774Z,21.4
2018-06-02T19:35:05.159Z,21.3
2018-06-02T19:40:08.300Z,21.2
2018-06-02T19:45:05.799Z,21.2
2018-06-02T19:50:03.281Z,21.2
2018-06-02T19:55:02.564Z,21.2
2018-06-02T20:00:02.885Z,21.1
2018-06-02T20:05:02.860Z,21.2
2018-06-02T20:10:07.820Z,21.1
2018-06-02T20:15:17.555Z,21
2018-06-02T20:20:15.972Z,21
2018-06-02T20:25:07.982Z,21
2018-06-02T20:30:05.092Z,20.9
2018-06-02T20:35:10.028Z,20.8
2018-06-02T20:40:05.717Z,20.8
2018-06-02T20:45:05.698Z,20.7
2018-06-02T20:50:03.311Z,20.7
2018-06-02T20:55:08.166Z,20.6
2018-06-02T21:00:02.612Z,20.6
2018-06-02T21:05:05.750Z,20.5
2018-06-02T21:10:05.275Z,20.5
2018-06-02T21:15:05.901Z,20.4
2018-06-02T21:20:02.458Z,20.4
2018-06-02T21:25:05.532Z,20.3
2018-06-02T21:30:03.140Z,20.3
2018-06-02T21:35:02.631Z,20.3
2018-06-02T21:40:05.084Z,20.3
2018-06-02T21:45:04.924Z,20.3
2018-06-02T21:50:02.668Z,20.2
2018-06-02T21:55:05.067Z,20.3
2018-06-02T22:00:02.797Z,20.2
2018-06-02T22:05:03.363Z,20.3
2018-06-02T22:10:07.684Z,20.2
2018-06-02T22:15:05.882Z,20.1
2018-06-02T22:20:02.571Z,20.1
2018-06-02T22:25:02.489Z,20.1
2018-06-02T22:30:03.042Z,20.1
2018-06-02T22:35:05.067Z,20.1
2018-06-02T22:40:04.998Z,20
2018-06-02T22:45:07.961Z,19.9
2018-06-02T22:50:02.757Z,20
2018-06-02T22:55:15.775Z,19.9
2018-06-02T23:00:05.991Z,19.9
2018-06-02T23:05:05.166Z,19.9
2018-06-02T23:10:08.123Z,19.9
2018-06-02T23:15:02.468Z,19.9
2018-06-02T23:20:05.553Z,19.9
2018-06-02T23:25:03.329Z,19.9
2018-06-02T23:30:02.702Z,19.8
2018-06-02T23:35:03.099Z,19.8
2018-06-02T23:40:05.471Z,19.8
2018-06-02T23:45:02.408Z,19.8
2018-06-02T23:50:05.342Z,19.8
2018-06-02T23:55:03.228Z,19.8
